sensor_id;sensor_type;location;lat;lon;timestamp;temperature;humidity
24224;DHT22;12359;49.716;9.212;2023-03-01T00:02:08;-1.10;99.90
24224;DHT22;12359;49.716;9.212;2023-03-01T00:04:33;-1.10;99.90
24224;DHT22;12359;49.716;9.212;2023-03-01T00:07:01;-1.10;99.90
24224;DHT22;12359;49.716;9.212;2023-03-01T00:09:26;-1.20;99.90
24224;DHT22;12359;49.716;9.212;2023-03-01T00:11:52;-1.20;99.90
24224;DHT22;12359;49.716;9.212;2023-03-01T00:14:18;-1.20;99.90
24224;DHT22;12359;49.716;9.212;2023-03-01T00:16:44;-1.20;99.90
24224;DHT22;12359;49.716;9.212;2023-03-01T00:19:14;-1.30;99.90
24224;DHT22;12359;49.716;9.212;2023-03-01T00:21:40;-1.30;99.90
24224;DHT22;12359;49.716;9.212;2023-03-01T00:24:06;-1.30;99.90
24224;DHT22;12359;49.716;9.212;2023-03-01T00:26:32;-1.30;99.90
24224;DHT22;12359;49.716;9.212;2023-03-01T00:28:59;-1.30;99.90
24224;DHT22;12359;49.716;9.212;2023-03-01T00:31:27;-1.30;99.90
24224;DHT22;12359;49.716;9.212;2023-03-01T00:33:58;-1.40;99.90
24224;DHT22;12359;49.716;9.212;2023-03-01T00:36:26;-1.40;99.90
24224;DHT22;12359;49.716;9.212;2023-03-01T00:38:52;-1.40;99.90
24224;DHT22;12359;49.716;9.212;2023-03-01T00:41:19;-1.40;99.90
24224;DHT22;12359;49.716;9.212;2023-03-01T00:43:45;-1.40;99.90
24224;DHT22;12359;49.716;9.212;2023-03-01T00:46:17;-1.30;99.90
24224;DHT22;12359;49.716;9.212;2023-03-01T00:48:43;-1.40;99.90
24224;DHT22;12359;49.716;9.212;2023-03-01T00:51:14;-1.40;99.90
24224;DHT22;12359;49.716;9.212;2023-03-01T00:53:41;-1.40;99.90
24224;DHT22;12359;49.716;9.212;2023-03-01T00:56:12;-1.40;99.90
24224;DHT22;12359;49.716;9.212;2023-03-01T00:58:38;-1.50;99.90
24224;DHT22;12359;49.716;9.212;2023-03-01T01:01:15;-1.60;99.90
24224;DHT22;12359;49.716;9.212;2023-03-01T01:06:21;-1.60;99.90
24224;DHT22;12359;49.716;9.212;2023-03-01T01:08:48;-1.60;1.00
24224;DHT22;12359;49.716;9.212;2023-03-01T01:11:14;-1.60;1.00
24224;DHT22;12359;49.716;9.212;2023-03-01T01:13:41;-1.60;99.90
24224;DHT22;12359;49.716;9.212;2023-03-01T01:16:07;-1.50;99.90
24224;DHT22;12359;49.716;9.212;2023-03-01T01:18:33;-1.60;1.00
24224;DHT22;12359;49.716;9.212;2023-03-01T01:21:07;-1.60;99.90
24224;DHT22;12359;49.716;9.212;2023-03-01T01:23:33;-1.60;1.00
24224;DHT22;12359;49.716;9.212;2023-03-01T01:26:06;-1.60;99.90
24224;DHT22;12359;49.716;9.212;2023-03-01T01:28:33;-1.60;99.90
24224;DHT22;12359;49.716;9.212;2023-03-01T01:30:59;-1.60;99.90
24224;DHT22;12359;49.716;9.212;2023-03-01T01:33:25;-1.60;99.90
24224;DHT22;12359;49.716;9.212;2023-03-01T01:35:50;-1.60;99.90
24224;DHT22;12359;49.716;9.212;2023-03-01T01:38:16;-1.60;1.00
24224;DHT22;12359;49.716;9.212;2023-03-01T01:40:49;-1.60;99.90
24224;DHT22;12359;49.716;9.212;2023-03-01T01:43:24;-1.60;1.00
24224;DHT22;12359;49.716;9.212;2023-03-01T01:45:51;-1.60;1.00
24224;DHT22;12359;49.716;9.212;2023-03-01T01:48:23;-1.60;1.00
24224;DHT22;12359;49.716;9.212;2023-03-01T01:50:59;-1.60;99.90
24224;DHT22;12359;49.716;9.212;2023-03-01T01:53:25;-1.60;99.90
24224;DHT22;12359;49.716;9.212;2023-03-01T01:55:54;-1.60;99.90
24224;DHT22;12359;49.716;9.212;2023-03-01T01:58:24;-1.60;99.90
24224;DHT22;12359;49.716;9.212;2023-03-01T02:00:53;-1.70;1.00
24224;DHT22;12359;49.716;9.212;2023-03-01T02:03:25;-1.70;1.00
24224;DHT22;12359;49.716;9.212;2023-03-01T02:08:26;-1.70;1.00
24224;DHT22;12359;49.716;9.212;2023-03-01T02:10:56;-1.70;1.00
24224;DHT22;12359;49.716;9.212;2023-03-01T02:13:23;-1.70;1.00
24224;DHT22;12359;49.716;9.212;2023-03-01T02:15:49;-1.80;1.00
24224;DHT22;12359;49.716;9.212;2023-03-01T02:18:17;-1.80;1.00
24224;DHT22;12359;49.716;9.212;2023-03-01T02:23:31;-1.90;1.00
24224;DHT22;12359;49.716;9.212;2023-03-01T02:26:34;-1.90;1.00
24224;DHT22;12359;49.716;9.212;2023-03-01T02:29:02;-1.90;1.00
24224;DHT22;12359;49.716;9.212;2023-03-01T02:31:28;-1.80;1.00
24224;DHT22;12359;49.716;9.212;2023-03-01T02:34:18;-1.80;1.00
24224;DHT22;12359;49.716;9.212;2023-03-01T02:36:56;-1.90;1.00
24224;DHT22;12359;49.716;9.212;2023-03-01T02:39:28;-1.90;1.00
24224;DHT22;12359;49.716;9.212;2023-03-01T02:41:56;-1.90;1.00
24224;DHT22;12359;49.716;9.212;2023-03-01T02:44:22;-1.90;1.00
24224;DHT22;12359;49.716;9.212;2023-03-01T02:46:51;-1.90;1.00
24224;DHT22;12359;49.716;9.212;2023-03-01T02:49:26;-1.90;1.00
24224;DHT22;12359;49.716;9.212;2023-03-01T02:52:06;-1.90;1.00
24224;DHT22;12359;49.716;9.212;2023-03-01T02:55:00;-1.90;1.00
24224;DHT22;12359;49.716;9.212;2023-03-01T02:57:28;-1.90;1.00
24224;DHT22;12359;49.716;9.212;2023-03-01T02:59:59;-1.90;1.00
24224;DHT22;12359;49.716;9.212;2023-03-01T03:02:29;-1.90;1.00
24224;DHT22;12359;49.716;9.212;2023-03-01T03:05:11;-1.90;1.00
24224;DHT22;12359;49.716;9.212;2023-03-01T03:07:43;-1.80;1.00
24224;DHT22;12359;49.716;9.212;2023-03-01T03:10:16;-1.80;1.00
24224;DHT22;12359;49.716;9.212;2023-03-01T03:12:42;-1.80;1.00
24224;DHT22;12359;49.716;9.212;2023-03-01T03:15:09;-1.80;1.00
24224;DHT22;12359;49.716;9.212;2023-03-01T03:17:36;-1.90;1.00
24224;DHT22;12359;49.716;9.212;2023-03-01T03:20:04;-1.90;1.00
24224;DHT22;12359;49.716;9.212;2023-03-01T03:22:31;-1.90;1.00
24224;DHT22;12359;49.716;9.212;2023-03-01T03:24:59;-1.90;1.00
24224;DHT22;12359;49.716;9.212;2023-03-01T03:27:27;-1.90;1.00
24224;DHT22;12359;49.716;9.212;2023-03-01T03:29:56;-1.80;1.00
24224;DHT22;12359;49.716;9.212;2023-03-01T03:32:21;-1.90;1.00
24224;DHT22;12359;49.716;9.212;2023-03-01T03:34:47;-1.90;1.00
24224;DHT22;12359;49.716;9.212;2023-03-01T03:37:13;-1.80;1.00
24224;DHT22;12359;49.716;9.212;2023-03-01T03:39:59;-1.80;1.00
24224;DHT22;12359;49.716;9.212;2023-03-01T03:42:25;-1.90;1.00
24224;DHT22;12359;49.716;9.212;2023-03-01T03:44:53;-1.90;1.00
24224;DHT22;12359;49.716;9.212;2023-03-01T03:47:19;-1.90;1.00
24224;DHT22;12359;49.716;9.212;2023-03-01T03:49:44;-1.90;1.00
24224;DHT22;12359;49.716;9.212;2023-03-01T03:52:10;-2.00;1.00
24224;DHT22;12359;49.716;9.212;2023-03-01T03:54:41;-2.00;1.00
24224;DHT22;12359;49.716;9.212;2023-03-01T03:57:10;-2.00;1.00
24224;DHT22;12359;49.716;9.212;2023-03-01T03:59:35;-2.00;1.00
24224;DHT22;12359;49.716;9.212;2023-03-01T04:02:01;-2.00;1.00
24224;DHT22;12359;49.716;9.212;2023-03-01T04:04:27;-2.00;1.00
24224;DHT22;12359;49.716;9.212;2023-03-01T04:06:52;-2.00;1.00
24224;DHT22;12359;49.716;9.212;2023-03-01T04:09:18;-2.00;1.00
24224;DHT22;12359;49.716;9.212;2023-03-01T04:11:43;-2.00;1.00
24224;DHT22;12359;49.716;9.212;2023-03-01T04:14:09;-2.00;1.00
24224;DHT22;12359;49.716;9.212;2023-03-01T04:16:35;-2.00;1.00
24224;DHT22;12359;49.716;9.212;2023-03-01T04:19:01;-2.00;1.00
24224;DHT22;12359;49.716;9.212;2023-03-01T04:21:26;-2.00;1.00
24224;DHT22;12359;49.716;9.212;2023-03-01T04:23:52;-2.00;1.00
24224;DHT22;12359;49.716;9.212;2023-03-01T04:26:19;-1.90;1.00
24224;DHT22;12359;49.716;9.212;2023-03-01T04:28:45;-2.00;1.00
24224;DHT22;12359;49.716;9.212;2023-03-01T04:31:15;-1.90;1.00
24224;DHT22;12359;49.716;9.212;2023-03-01T04:33:44;-1.90;1.00
24224;DHT22;12359;49.716;9.212;2023-03-01T04:36:11;-1.90;1.00
24224;DHT22;12359;49.716;9.212;2023-03-01T04:38:38;-1.90;1.00
24224;DHT22;12359;49.716;9.212;2023-03-01T04:41:06;-1.90;1.00
24224;DHT22;12359;49.716;9.212;2023-03-01T04:43:32;-1.90;1.00
24224;DHT22;12359;49.716;9.212;2023-03-01T04:46:12;-1.90;1.00
24224;DHT22;12359;49.716;9.212;2023-03-01T04:48:39;-1.90;1.00
24224;DHT22;12359;49.716;9.212;2023-03-01T04:51:06;-1.90;1.00
24224;DHT22;12359;49.716;9.212;2023-03-01T04:53:33;-1.90;1.00
24224;DHT22;12359;49.716;9.212;2023-03-01T04:55:59;-1.90;1.00
24224;DHT22;12359;49.716;9.212;2023-03-01T04:58:26;-1.90;1.00
24224;DHT22;12359;49.716;9.212;2023-03-01T05:00:52;-1.90;1.00
24224;DHT22;12359;49.716;9.212;2023-03-01T05:03:19;-1.90;1.00
24224;DHT22;12359;49.716;9.212;2023-03-01T05:05:47;-1.80;1.00
24224;DHT22;12359;49.716;9.212;2023-03-01T05:08:13;-1.80;1.00
24224;DHT22;12359;49.716;9.212;2023-03-01T05:10:53;-1.80;1.00
24224;DHT22;12359;49.716;9.212;2023-03-01T05:13:20;-1.80;1.00
24224;DHT22;12359;49.716;9.212;2023-03-01T05:15:57;-1.70;1.00
24224;DHT22;12359;49.716;9.212;2023-03-01T05:18:24;-1.70;1.00
24224;DHT22;12359;49.716;9.212;2023-03-01T05:21:04;-1.70;1.00
24224;DHT22;12359;49.716;9.212;2023-03-01T05:23:31;-1.70;1.00
24224;DHT22;12359;49.716;9.212;2023-03-01T05:25:58;-1.80;1.00
24224;DHT22;12359;49.716;9.212;2023-03-01T05:28:25;-1.80;1.00
24224;DHT22;12359;49.716;9.212;2023-03-01T05:30:51;-1.80;1.00
24224;DHT22;12359;49.716;9.212;2023-03-01T05:33:17;-1.80;1.00
24224;DHT22;12359;49.716;9.212;2023-03-01T05:35:45;-1.80;1.00
24224;DHT22;12359;49.716;9.212;2023-03-01T05:38:12;-1.80;1.00
24224;DHT22;12359;49.716;9.212;2023-03-01T05:40:42;-1.80;1.00
24224;DHT22;12359;49.716;9.212;2023-03-01T05:43:07;-1.80;1.00
24224;DHT22;12359;49.716;9.212;2023-03-01T05:45:36;-1.80;1.00
24224;DHT22;12359;49.716;9.212;2023-03-01T05:48:02;-1.80;1.00
24224;DHT22;12359;49.716;9.212;2023-03-01T05:50:29;-1.80;1.00
24224;DHT22;12359;49.716;9.212;2023-03-01T05:53:00;-1.80;1.00
24224;DHT22;12359;49.716;9.212;2023-03-01T05:55:27;-1.80;1.00
24224;DHT22;12359;49.716;9.212;2023-03-01T05:57:53;-1.90;1.00
24224;DHT22;12359;49.716;9.212;2023-03-01T06:00:20;-1.90;1.00
24224;DHT22;12359;49.716;9.212;2023-03-01T06:02:49;-2.00;1.00
24224;DHT22;12359;49.716;9.212;2023-03-01T06:05:15;-1.90;1.00
24224;DHT22;12359;49.716;9.212;2023-03-01T06:07:41;-2.00;1.00
24224;DHT22;12359;49.716;9.212;2023-03-01T06:10:08;-1.90;1.00
24224;DHT22;12359;49.716;9.212;2023-03-01T06:12:35;-1.90;1.00
24224;DHT22;12359;49.716;9.212;2023-03-01T06:15:02;-1.90;1.00
24224;DHT22;12359;49.716;9.212;2023-03-01T06:17:32;-1.80;1.00
24224;DHT22;12359;49.716;9.212;2023-03-01T06:20:07;-1.80;1.00
24224;DHT22;12359;49.716;9.212;2023-03-01T06:22:33;-1.80;1.00
24224;DHT22;12359;49.716;9.212;2023-03-01T06:24:58;-1.70;1.00
24224;DHT22;12359;49.716;9.212;2023-03-01T06:27:24;-1.70;1.00
24224;DHT22;12359;49.716;9.212;2023-03-01T06:29:50;-1.60;1.00
24224;DHT22;12359;49.716;9.212;2023-03-01T06:32:15;-1.30;1.00
24224;DHT22;12359;49.716;9.212;2023-03-01T06:34:41;-1.20;1.00
24224;DHT22;12359;49.716;9.212;2023-03-01T06:37:07;-0.90;1.00
24224;DHT22;12359;49.716;9.212;2023-03-01T06:39:36;-0.70;1.00
24224;DHT22;12359;49.716;9.212;2023-03-01T06:42:05;-0.20;1.00
24224;DHT22;12359;49.716;9.212;2023-03-01T06:44:30;0.10;99.90
24224;DHT22;12359;49.716;9.212;2023-03-01T06:46:56;0.50;99.90
24224;DHT22;12359;49.716;9.212;2023-03-01T06:49:22;1.00;99.90
24224;DHT22;12359;49.716;9.212;2023-03-01T06:51:47;1.50;99.90
24224;DHT22;12359;49.716;9.212;2023-03-01T06:54:13;2.00;1.00
24224;DHT22;12359;49.716;9.212;2023-03-01T06:56:39;2.60;57.70
24224;DHT22;12359;49.716;9.212;2023-03-01T06:59:05;2.70;99.90
24224;DHT22;12359;49.716;9.212;2023-03-01T07:01:31;3.20;1.00
24224;DHT22;12359;49.716;9.212;2023-03-01T07:03:59;3.70;1.00
24224;DHT22;12359;49.716;9.212;2023-03-01T07:06:25;4.20;14.30
24224;DHT22;12359;49.716;9.212;2023-03-01T07:08:50;4.60;99.90
24224;DHT22;12359;49.716;9.212;2023-03-01T07:11:16;4.80;1.00
24224;DHT22;12359;49.716;9.212;2023-03-01T07:13:42;5.10;99.90
24224;DHT22;12359;49.716;9.212;2023-03-01T07:16:08;5.60;94.40
24224;DHT22;12359;49.716;9.212;2023-03-01T07:18:33;6.00;1.00
24224;DHT22;12359;49.716;9.212;2023-03-01T07:21:04;6.30;1.00
24224;DHT22;12359;49.716;9.212;2023-03-01T07:23:31;6.20;99.90
24224;DHT22;12359;49.716;9.212;2023-03-01T07:25:57;6.60;99.90
24224;DHT22;12359;49.716;9.212;2023-03-01T07:28:23;6.90;99.90
24224;DHT22;12359;49.716;9.212;2023-03-01T07:30:49;7.60;99.90
24224;DHT22;12359;49.716;9.212;2023-03-01T07:33:15;8.30;99.90
24224;DHT22;12359;49.716;9.212;2023-03-01T07:35:40;8.70;85.40
24224;DHT22;12359;49.716;9.212;2023-03-01T07:38:06;8.60;39.70
24224;DHT22;12359;49.716;9.212;2023-03-01T07:40:32;9.00;26.60
24224;DHT22;12359;49.716;9.212;2023-03-01T07:42:58;9.10;8.60
24224;DHT22;12359;49.716;9.212;2023-03-01T07:45:25;10.20;1.10
24224;DHT22;12359;49.716;9.212;2023-03-01T07:47:51;10.50;1.00
24224;DHT22;12359;49.716;9.212;2023-03-01T07:50:17;10.50;1.00
24224;DHT22;12359;49.716;9.212;2023-03-01T07:52:46;11.30;1.00
24224;DHT22;12359;49.716;9.212;2023-03-01T07:55:12;11.40;1.00
24224;DHT22;12359;49.716;9.212;2023-03-01T07:57:38;11.60;1.00
24224;DHT22;12359;49.716;9.212;2023-03-01T08:00:05;11.20;1.00
24224;DHT22;12359;49.716;9.212;2023-03-01T08:02:31;10.80;1.00
24224;DHT22;12359;49.716;9.212;2023-03-01T08:04:57;11.60;1.00
24224;DHT22;12359;49.716;9.212;2023-03-01T08:07:23;11.60;1.00
24224;DHT22;12359;49.716;9.212;2023-03-01T08:09:48;11.80;1.00
24224;DHT22;12359;49.716;9.212;2023-03-01T08:12:14;10.80;1.00
24224;DHT22;12359;49.716;9.212;2023-03-01T08:14:41;10.60;1.00
24224;DHT22;12359;49.716;9.212;2023-03-01T08:17:09;10.50;1.00
24224;DHT22;12359;49.716;9.212;2023-03-01T08:19:35;10.40;1.00
24224;DHT22;12359;49.716;9.212;2023-03-01T08:22:03;10.40;1.00
24224;DHT22;12359;49.716;9.212;2023-03-01T08:24:29;10.80;1.00
24224;DHT22;12359;49.716;9.212;2023-03-01T08:26:55;10.50;1.00
24224;DHT22;12359;49.716;9.212;2023-03-01T08:29:22;11.30;1.00
24224;DHT22;12359;49.716;9.212;2023-03-01T08:31:48;11.20;1.00
24224;DHT22;12359;49.716;9.212;2023-03-01T08:34:16;11.30;1.00
24224;DHT22;12359;49.716;9.212;2023-03-01T08:36:43;11.90;1.00
24224;DHT22;12359;49.716;9.212;2023-03-01T08:39:15;10.90;1.00
24224;DHT22;12359;49.716;9.212;2023-03-01T08:41:41;11.40;1.00
24224;DHT22;12359;49.716;9.212;2023-03-01T08:44:08;11.50;1.00
24224;DHT22;12359;49.716;9.212;2023-03-01T08:46:39;11.80;1.00
24224;DHT22;12359;49.716;9.212;2023-03-01T08:49:13;12.50;1.00
24224;DHT22;12359;49.716;9.212;2023-03-01T08:51:39;12.50;1.00
24224;DHT22;12359;49.716;9.212;2023-03-01T08:54:25;12.80;1.00
24224;DHT22;12359;49.716;9.212;2023-03-01T08:56:51;12.80;1.00
24224;DHT22;12359;49.716;9.212;2023-03-01T08:59:18;13.20;1.00
24224;DHT22;12359;49.716;9.212;2023-03-01T09:01:44;13.90;1.00
24224;DHT22;12359;49.716;9.212;2023-03-01T09:04:10;14.20;1.00
24224;DHT22;12359;49.716;9.212;2023-03-01T09:06:36;14.40;1.00
24224;DHT22;12359;49.716;9.212;2023-03-01T09:09:04;14.50;1.00
24224;DHT22;12359;49.716;9.212;2023-03-01T09:11:30;14.20;1.00
24224;DHT22;12359;49.716;9.212;2023-03-01T09:13:56;14.10;1.00
24224;DHT22;12359;49.716;9.212;2023-03-01T09:16:22;14.10;1.00
24224;DHT22;12359;49.716;9.212;2023-03-01T09:18:53;13.40;1.00
24224;DHT22;12359;49.716;9.212;2023-03-01T09:21:21;13.40;1.00
24224;DHT22;12359;49.716;9.212;2023-03-01T09:23:48;13.50;1.00
24224;DHT22;12359;49.716;9.212;2023-03-01T09:26:19;13.50;1.00
24224;DHT22;12359;49.716;9.212;2023-03-01T09:28:48;13.40;1.00
24224;DHT22;12359;49.716;9.212;2023-03-01T09:31:15;13.40;1.00
24224;DHT22;12359;49.716;9.212;2023-03-01T09:33:42;12.80;1.00
24224;DHT22;12359;49.716;9.212;2023-03-01T09:36:15;12.40;1.00
24224;DHT22;12359;49.716;9.212;2023-03-01T09:38:42;12.30;1.00
24224;DHT22;12359;49.716;9.212;2023-03-01T09:46:59;9.90;1.00
24224;DHT22;12359;49.716;9.212;2023-03-01T09:49:28;10.00;1.00
24224;DHT22;12359;49.716;9.212;2023-03-01T09:54:45;11.00;1.00
24224;DHT22;12359;49.716;9.212;2023-03-01T09:57:50;11.70;1.00
24224;DHT22;12359;49.716;9.212;2023-03-01T10:11:02;11.90;1.00
24224;DHT22;12359;49.716;9.212;2023-03-01T10:16:41;10.00;1.00
24224;DHT22;12359;49.716;9.212;2023-03-01T10:19:14;9.80;1.00
24224;DHT22;12359;49.716;9.212;2023-03-01T10:21:45;9.60;1.00
24224;DHT22;12359;49.716;9.212;2023-03-01T10:24:16;10.10;1.00
24224;DHT22;12359;49.716;9.212;2023-03-01T10:26:58;10.60;1.00
24224;DHT22;12359;49.716;9.212;2023-03-01T10:29:45;10.30;1.00
24224;DHT22;12359;49.716;9.212;2023-03-01T10:32:11;10.20;1.00
24224;DHT22;12359;49.716;9.212;2023-03-01T10:34:37;11.10;1.00
24224;DHT22;12359;49.716;9.212;2023-03-01T10:37:17;10.80;1.00
24224;DHT22;12359;49.716;9.212;2023-03-01T10:40:08;10.80;1.00
24224;DHT22;12359;49.716;9.212;2023-03-01T10:42:39;10.80;1.00
24224;DHT22;12359;49.716;9.212;2023-03-01T10:48:19;10.70;1.00
24224;DHT22;12359;49.716;9.212;2023-03-01T10:50:51;10.00;1.00
24224;DHT22;12359;49.716;9.212;2023-03-01T10:53:38;9.60;1.00
24224;DHT22;12359;49.716;9.212;2023-03-01T10:56:13;9.70;1.00
24224;DHT22;12359;49.716;9.212;2023-03-01T10:59:02;9.80;1.00
24224;DHT22;12359;49.716;9.212;2023-03-01T11:01:32;9.80;1.00
24224;DHT22;12359;49.716;9.212;2023-03-01T11:04:11;10.20;1.00
24224;DHT22;12359;49.716;9.212;2023-03-01T11:06:39;9.90;1.00
24224;DHT22;12359;49.716;9.212;2023-03-01T11:09:22;9.50;1.00
24224;DHT22;12359;49.716;9.212;2023-03-01T11:11:56;9.60;1.00
24224;DHT22;12359;49.716;9.212;2023-03-01T11:14:27;10.30;1.00
24224;DHT22;12359;49.716;9.212;2023-03-01T11:17:04;10.80;1.00
24224;DHT22;12359;49.716;9.212;2023-03-01T11:19:31;10.30;1.00
24224;DHT22;12359;49.716;9.212;2023-03-01T11:22:18;9.80;1.00
24224;DHT22;12359;49.716;9.212;2023-03-01T11:24:50;10.40;1.00
24224;DHT22;12359;49.716;9.212;2023-03-01T11:27:24;11.10;1.00
24224;DHT22;12359;49.716;9.212;2023-03-01T11:29:59;11.50;1.00
24224;DHT22;12359;49.716;9.212;2023-03-01T11:32:29;11.40;1.00
24224;DHT22;12359;49.716;9.212;2023-03-01T11:35:04;11.40;1.00
24224;DHT22;12359;49.716;9.212;2023-03-01T11:46:08;12.70;1.00
24224;DHT22;12359;49.716;9.212;2023-03-01T11:48:49;12.70;1.00
24224;DHT22;12359;49.716;9.212;2023-03-01T11:51:31;12.90;1.00
24224;DHT22;12359;49.716;9.212;2023-03-01T11:56:46;13.10;1.00
24224;DHT22;12359;49.716;9.212;2023-03-01T11:59:26;13.20;1.00
24224;DHT22;12359;49.716;9.212;2023-03-01T12:19:32;12.70;1.00
24224;DHT22;12359;49.716;9.212;2023-03-01T12:25:34;12.50;1.00
24224;DHT22;12359;49.716;9.212;2023-03-01T12:28:33;12.40;1.00
24224;DHT22;12359;49.716;9.212;2023-03-01T12:49:30;11.60;1.00
24224;DHT22;12359;49.716;9.212;2023-03-01T12:52:01;11.80;1.00
24224;DHT22;12359;49.716;9.212;2023-03-01T12:54:36;11.80;1.00
24224;DHT22;12359;49.716;9.212;2023-03-01T12:57:27;12.00;1.00
24224;DHT22;12359;49.716;9.212;2023-03-01T13:00:22;11.60;1.00
24224;DHT22;12359;49.716;9.212;2023-03-01T13:08:29;10.90;1.00
24224;DHT22;12359;49.716;9.212;2023-03-01T13:11:01;11.10;1.00
24224;DHT22;12359;49.716;9.212;2023-03-01T13:13:28;10.80;1.00
24224;DHT22;12359;49.716;9.212;2023-03-01T13:15:55;11.10;1.00
24224;DHT22;12359;49.716;9.212;2023-03-01T13:20:50;11.80;1.00
24224;DHT22;12359;49.716;9.212;2023-03-01T13:28:41;12.20;1.00
24224;DHT22;12359;49.716;9.212;2023-03-01T13:33:49;11.70;1.00
24224;DHT22;12359;49.716;9.212;2023-03-01T13:46:43;11.00;1.00
24224;DHT22;12359;49.716;9.212;2023-03-01T13:49:13;10.90;1.00
24224;DHT22;12359;49.716;9.212;2023-03-01T13:51:40;10.70;1.00
24224;DHT22;12359;49.716;9.212;2023-03-01T13:54:11;10.70;1.00
24224;DHT22;12359;49.716;9.212;2023-03-01T13:56:41;10.60;1.00
24224;DHT22;12359;49.716;9.212;2023-03-01T13:59:14;10.50;1.00
24224;DHT22;12359;49.716;9.212;2023-03-01T14:01:40;10.50;1.00
24224;DHT22;12359;49.716;9.212;2023-03-01T14:04:35;10.50;1.00
24224;DHT22;12359;49.716;9.212;2023-03-01T14:07:24;10.20;1.00
24224;DHT22;12359;49.716;9.212;2023-03-01T14:10:00;9.90;1.00
24224;DHT22;12359;49.716;9.212;2023-03-01T14:12:51;9.70;1.00
24224;DHT22;12359;49.716;9.212;2023-03-01T14:15:49;9.60;1.00
24224;DHT22;12359;49.716;9.212;2023-03-01T14:18:26;9.60;1.00
24224;DHT22;12359;49.716;9.212;2023-03-01T14:20:55;9.60;1.00
24224;DHT22;12359;49.716;9.212;2023-03-01T14:23:22;9.70;1.00
24224;DHT22;12359;49.716;9.212;2023-03-01T14:25:54;9.70;1.00
24224;DHT22;12359;49.716;9.212;2023-03-01T14:28:28;9.70;1.00
24224;DHT22;12359;49.716;9.212;2023-03-01T14:30:56;9.70;1.00
24224;DHT22;12359;49.716;9.212;2023-03-01T14:33:33;10.00;1.00
24224;DHT22;12359;49.716;9.212;2023-03-01T14:36:01;10.30;1.00
24224;DHT22;12359;49.716;9.212;2023-03-01T14:38:47;10.30;1.00
24224;DHT22;12359;49.716;9.212;2023-03-01T14:41:15;10.10;1.00
24224;DHT22;12359;49.716;9.212;2023-03-01T14:43:44;10.10;1.00
24224;DHT22;12359;49.716;9.212;2023-03-01T14:48:50;10.20;1.00
24224;DHT22;12359;49.716;9.212;2023-03-01T14:51:17;10.00;1.00
24224;DHT22;12359;49.716;9.212;2023-03-01T14:53:42;9.90;1.00
24224;DHT22;12359;49.716;9.212;2023-03-01T14:56:14;9.90;1.00
24224;DHT22;12359;49.716;9.212;2023-03-01T15:01:51;10.00;1.00
24224;DHT22;12359;49.716;9.212;2023-03-01T15:07:31;10.10;1.00
24224;DHT22;12359;49.716;9.212;2023-03-01T15:13:35;9.90;1.00
24224;DHT22;12359;49.716;9.212;2023-03-01T15:16:22;9.90;1.00
24224;DHT22;12359;49.716;9.212;2023-03-01T15:19:22;9.70;1.00
24224;DHT22;12359;49.716;9.212;2023-03-01T15:21:56;9.70;1.00
24224;DHT22;12359;49.716;9.212;2023-03-01T15:24:50;9.70;1.00
24224;DHT22;12359;49.716;9.212;2023-03-01T15:27:22;9.60;1.00
24224;DHT22;12359;49.716;9.212;2023-03-01T15:30:44;9.50;1.00
24224;DHT22;12359;49.716;9.212;2023-03-01T15:35:50;9.50;1.00
24224;DHT22;12359;49.716;9.212;2023-03-01T15:38:34;9.50;1.00
24224;DHT22;12359;49.716;9.212;2023-03-01T15:43:51;9.50;1.00
24224;DHT22;12359;49.716;9.212;2023-03-01T15:46:44;9.40;1.00
24224;DHT22;12359;49.716;9.212;2023-03-01T15:49:39;9.30;1.00
24224;DHT22;12359;49.716;9.212;2023-03-01T15:52:10;9.30;1.00
24224;DHT22;12359;49.716;9.212;2023-03-01T15:54:39;9.30;1.00
24224;DHT22;12359;49.716;9.212;2023-03-01T15:57:12;9.30;1.00
24224;DHT22;12359;49.716;9.212;2023-03-01T15:59:41;9.30;1.00
24224;DHT22;12359;49.716;9.212;2023-03-01T16:02:11;9.20;1.00
24224;DHT22;12359;49.716;9.212;2023-03-01T16:04:39;9.20;1.00
24224;DHT22;12359;49.716;9.212;2023-03-01T16:07:05;9.10;1.00
24224;DHT22;12359;49.716;9.212;2023-03-01T16:09:31;9.10;1.00
24224;DHT22;12359;49.716;9.212;2023-03-01T16:11:57;9.10;1.00
24224;DHT22;12359;49.716;9.212;2023-03-01T16:14:23;9.10;1.00
24224;DHT22;12359;49.716;9.212;2023-03-01T16:16:49;9.00;1.00
24224;DHT22;12359;49.716;9.212;2023-03-01T16:19:15;9.00;1.00
24224;DHT22;12359;49.716;9.212;2023-03-01T16:21:41;9.00;1.00
24224;DHT22;12359;49.716;9.212;2023-03-01T16:24:08;8.90;1.00
24224;DHT22;12359;49.716;9.212;2023-03-01T16:26:34;8.90;1.00
24224;DHT22;12359;49.716;9.212;2023-03-01T16:29:07;8.90;1.00
24224;DHT22;12359;49.716;9.212;2023-03-01T16:31:33;8.80;1.00
24224;DHT22;12359;49.716;9.212;2023-03-01T16:33:59;8.80;1.00
24224;DHT22;12359;49.716;9.212;2023-03-01T16:36:26;8.80;1.00
24224;DHT22;12359;49.716;9.212;2023-03-01T16:38:54;8.80;1.00
24224;DHT22;12359;49.716;9.212;2023-03-01T16:41:21;8.70;1.00
24224;DHT22;12359;49.716;9.212;2023-03-01T16:43:48;8.70;1.00
24224;DHT22;12359;49.716;9.212;2023-03-01T16:46:19;8.60;1.00
24224;DHT22;12359;49.716;9.212;2023-03-01T16:48:46;8.50;1.00
24224;DHT22;12359;49.716;9.212;2023-03-01T16:51:12;8.50;1.00
24224;DHT22;12359;49.716;9.212;2023-03-01T16:53:38;8.50;1.00
24224;DHT22;12359;49.716;9.212;2023-03-01T16:56:07;8.40;1.00
24224;DHT22;12359;49.716;9.212;2023-03-01T16:58:34;8.30;1.00
24224;DHT22;12359;49.716;9.212;2023-03-01T17:01:15;8.20;1.00
24224;DHT22;12359;49.716;9.212;2023-03-01T17:03:42;8.20;1.00
24224;DHT22;12359;49.716;9.212;2023-03-01T17:06:11;8.00;1.00
24224;DHT22;12359;49.716;9.212;2023-03-01T17:08:37;7.90;1.00
24224;DHT22;12359;49.716;9.212;2023-03-01T17:13:30;7.70;1.00
24224;DHT22;12359;49.716;9.212;2023-03-01T17:15:56;7.60;1.00
24224;DHT22;12359;49.716;9.212;2023-03-01T17:18:21;7.60;1.00
24224;DHT22;12359;49.716;9.212;2023-03-01T17:20:47;7.60;1.00
24224;DHT22;12359;49.716;9.212;2023-03-01T17:23:13;7.60;1.00
24224;DHT22;12359;49.716;9.212;2023-03-01T17:25:45;7.60;1.00
24224;DHT22;12359;49.716;9.212;2023-03-01T17:28:12;7.60;1.00
24224;DHT22;12359;49.716;9.212;2023-03-01T17:30:41;7.60;1.00
24224;DHT22;12359;49.716;9.212;2023-03-01T17:33:08;7.60;1.00
24224;DHT22;12359;49.716;9.212;2023-03-01T17:35:33;7.50;1.00
24224;DHT22;12359;49.716;9.212;2023-03-01T17:38:01;7.40;1.00
24224;DHT22;12359;49.716;9.212;2023-03-01T17:40:27;7.30;1.00
24224;DHT22;12359;49.716;9.212;2023-03-01T17:42:53;7.30;1.00
24224;DHT22;12359;49.716;9.212;2023-03-01T17:45:18;7.20;1.00
24224;DHT22;12359;49.716;9.212;2023-03-01T17:47:44;7.10;1.00
24224;DHT22;12359;49.716;9.212;2023-03-01T17:50:10;7.10;1.00
24224;DHT22;12359;49.716;9.212;2023-03-01T17:52:36;7.10;1.00
24224;DHT22;12359;49.716;9.212;2023-03-01T17:55:03;7.10;1.00
24224;DHT22;12359;49.716;9.212;2023-03-01T17:57:29;7.10;1.40
24224;DHT22;12359;49.716;9.212;2023-03-01T17:59:55;7.10;3.80
24224;DHT22;12359;49.716;9.212;2023-03-01T18:02:20;7.10;7.80
24224;DHT22;12359;49.716;9.212;2023-03-01T18:04:46;7.10;10.30
24224;DHT22;12359;49.716;9.212;2023-03-01T18:07:12;7.10;15.30
24224;DHT22;12359;49.716;9.212;2023-03-01T18:09:37;7.00;17.80
24224;DHT22;12359;49.716;9.212;2023-03-01T18:12:03;7.00;24.30
24224;DHT22;12359;49.716;9.212;2023-03-01T18:14:29;7.00;27.30
24224;DHT22;12359;49.716;9.212;2023-03-01T18:16:59;6.90;31.80